createdAt,value
2018-09-30T00:00:22.116Z,65.39
2018-09-30T00:02:50.729Z,65.30
2018-09-30T00:05:19.350Z,66.05
2018-09-30T00:07:47.944Z,65.81
2018-09-30T00:10:16.492Z,65.65
2018-09-30T00:12:45.077Z,65.07
2018-09-30T00:15:13.634Z,65.56
2018-09-30T00:17:42.221Z,65.45
2018-09-30T00:20:10.786Z,65.10
2018-09-30T00:22:39.381Z,65.73
2018-09-30T00:25:13.339Z,65.47
2018-09-30T00:27:41.908Z,65.44
2018-09-30T00:30:10.467Z,66.05
2018-09-30T00:32:39.035Z,66.01
2018-09-30T00:35:07.598Z,65.66
2018-09-30T00:37:36.193Z,65.15
2018-09-30T00:40:04.819Z,64.75
2018-09-30T00:49:35.058Z,64.91
2018-09-30T00:52:03.644Z,65.01
2018-09-30T00:54:32.215Z,64.87
2018-09-30T00:57:00.837Z,64.41
2018-09-30T00:59:29.417Z,63.94
2018-09-30T01:01:58.013Z,64.11
2018-09-30T01:04:26.720Z,64.11
2018-09-30T01:06:55.312Z,63.79
2018-09-30T01:09:23.890Z,64.37
2018-09-30T01:11:52.494Z,63.72
2018-09-30T01:14:21.089Z,64.09
2018-09-30T01:16:49.991Z,63.37
2018-09-30T01:19:18.628Z,63.44
2018-09-30T01:21:47.512Z,63.26
2018-09-30T01:24:16.090Z,63.00
2018-09-30T01:26:44.698Z,63.24
2018-09-30T01:29:13.241Z,63.61
2018-09-30T01:31:41.813Z,63.58
2018-09-30T01:34:10.412Z,63.32
2018-09-30T01:36:39.905Z,63.78
2018-09-30T01:39:08.645Z,63.63
2018-09-30T01:41:37.500Z,64.03
2018-09-30T01:44:06.142Z,63.72
2018-09-30T01:46:36.355Z,64.65
2018-09-30T01:49:04.991Z,64.49
2018-09-30T01:51:33.930Z,64.35
2018-09-30T01:54:02.587Z,65.07
2018-09-30T01:56:31.323Z,65.30
2018-09-30T01:59:00.022Z,64.94
2018-09-30T02:01:29.160Z,64.49
2018-09-30T02:03:57.788Z,63.86
2018-09-30T02:06:26.500Z,63.85
2018-09-30T02:08:59.912Z,64.54
2018-09-30T02:11:28.469Z,64.49
2018-09-30T02:13:57.065Z,64.87
2018-09-30T02:16:25.604Z,64.73
2018-09-30T02:18:54.226Z,64.82
2018-09-30T02:21:22.801Z,64.82
2018-09-30T02:23:51.392Z,64.76
2018-09-30T02:26:20.198Z,65.75
2018-09-30T02:28:48.822Z,65.41
2018-09-30T02:31:17.409Z,65.05
2018-09-30T02:33:47.222Z,66.46
2018-09-30T02:36:15.807Z,66.68
2018-09-30T02:38:44.402Z,66.41
2018-09-30T02:41:13.346Z,66.49
2018-09-30T02:43:42.374Z,65.55
2018-09-30T02:46:10.936Z,66.79
2018-09-30T02:48:39.526Z,66.12
2018-09-30T02:51:08.081Z,66.50
2018-09-30T02:53:36.670Z,66.38
2018-09-30T02:56:05.259Z,66.89
2018-09-30T02:58:33.839Z,66.51
2018-09-30T03:01:02.451Z,66.88
2018-09-30T03:03:31.086Z,66.45
2018-09-30T03:05:59.674Z,66.56
2018-09-30T03:09:37.422Z,67.24
2018-09-30T03:12:06.005Z,67.78
2018-09-30T03:14:34.636Z,67.75
2018-09-30T03:17:03.214Z,67.12
2018-09-30T03:19:31.818Z,67.89
2018-09-30T03:22:00.462Z,66.94
2018-09-30T03:24:31.997Z,67.51
2018-09-30T03:27:01.110Z,68.18
2018-09-30T03:29:29.756Z,67.59
2018-09-30T03:31:58.354Z,67.48
2018-09-30T03:34:26.949Z,68.56
2018-09-30T03:36:55.553Z,68.40
2018-09-30T03:39:24.149Z,68.36
2018-09-30T03:41:52.733Z,68.62
2018-09-30T03:44:21.334Z,68.18
2018-09-30T03:46:49.927Z,68.18
2018-09-30T03:49:18.545Z,67.94
2018-09-30T03:51:50.885Z,68.04
2018-09-30T03:54:20.798Z,67.70
2018-09-30T03:56:49.432Z,68.45
2018-09-30T03:59:18.075Z,68.57
2018-09-30T04:01:54.238Z,69.15
2018-09-30T04:04:22.913Z,69.07
2018-09-30T04:06:51.474Z,70.17
2018-09-30T04:09:20.077Z,71.27
2018-09-30T04:11:48.646Z,71.43
2018-09-30T04:14:17.253Z,71.19
2018-09-30T04:16:45.851Z,71.72
2018-09-30T04:19:14.426Z,71.41
2018-09-30T04:21:43.060Z,71.05
2018-09-30T04:24:12.014Z,70.57
2018-09-30T04:26:41.720Z,70.00
2018-09-30T04:29:10.857Z,70.78
2018-09-30T04:31:39.474Z,70.46
2018-09-30T04:34:08.298Z,71.06
2018-09-30T04:36:37.068Z,70.50
2018-09-30T04:39:08.536Z,71.12
2018-09-30T04:41:37.157Z,70.18
2018-09-30T04:44:10.621Z,71.22
2018-09-30T04:46:39.613Z,71.88
2018-09-30T04:49:08.185Z,73.36
2018-09-30T04:51:36.825Z,73.73
2018-09-30T04:54:05.414Z,74.48
2018-09-30T04:56:34.051Z,74.23
2018-09-30T04:59:03.050Z,74.28
2018-09-30T05:01:31.664Z,74.23
2018-09-30T05:04:01.064Z,74.24
2018-09-30T05:06:30.503Z,74.04
2018-09-30T05:08:59.055Z,74.69
2018-09-30T05:11:27.657Z,74.06
2018-09-30T05:13:56.244Z,74.42
2018-09-30T05:16:24.971Z,73.41
2018-09-30T05:18:53.555Z,73.06
2018-09-30T05:21:22.197Z,71.81
2018-09-30T05:23:50.788Z,72.59
2018-09-30T05:26:19.436Z,71.25
2018-09-30T05:28:49.211Z,71.16
2018-09-30T05:31:18.341Z,71.52
2018-09-30T05:33:50.009Z,70.91
2018-09-30T05:36:18.681Z,70.36
2018-09-30T05:38:47.305Z,69.63
2018-09-30T05:41:15.946Z,69.32
2018-09-30T05:43:44.562Z,69.70
2018-09-30T05:46:13.758Z,69.20
2018-09-30T05:48:49.101Z,68.33
2018-09-30T05:51:18.602Z,68.37
2018-09-30T05:53:47.160Z,68.69
2018-09-30T05:56:15.788Z,67.43
2018-09-30T05:58:44.347Z,67.74
2018-09-30T06:01:13.013Z,67.42
2018-09-30T06:03:41.585Z,68.41
2018-09-30T06:06:10.238Z,67.98
2018-09-30T06:08:38.808Z,68.07
2018-09-30T06:11:07.473Z,66.66
2018-09-30T06:13:36.473Z,66.79
2018-09-30T06:16:05.404Z,66.37
2018-09-30T06:18:33.893Z,65.54
2018-09-30T06:21:02.526Z,65.17
2018-09-30T06:23:33.196Z,63.48
2018-09-30T06:26:04.685Z,61.62
2018-09-30T06:28:33.289Z,57.74
2018-09-30T06:31:02.554Z,51.54
2018-09-30T06:33:31.779Z,43.79
2018-09-30T06:36:01.029Z,36.87
2018-09-30T06:38:32.914Z,33.24
2018-09-30T06:41:02.137Z,30.50
2018-09-30T06:43:31.390Z,28.76
2018-09-30T06:46:00.277Z,25.89
2018-09-30T06:48:29.243Z,23.52
2018-09-30T06:50:58.192Z,21.46
2018-09-30T06:53:26.793Z,20.19
2018-09-30T06:55:55.659Z,18.37
2018-09-30T06:58:24.621Z,17.04
2018-09-30T07:00:53.249Z,15.97
2018-09-30T07:03:21.880Z,15.44
2018-09-30T07:05:50.753Z,14.04
2018-09-30T07:08:19.642Z,12.70
2018-09-30T07:10:48.301Z,12.91
2018-09-30T07:13:18.577Z,12.17
2018-09-30T07:15:47.462Z,11.66
2018-09-30T07:18:18.663Z,11.25
2018-09-30T07:20:47.282Z,11.15
2018-09-30T07:23:16.319Z,10.21
2018-09-30T07:25:45.761Z,10.10
2018-09-30T07:28:14.782Z,10.33
2018-09-30T07:30:43.605Z,10.13
2018-09-30T07:33:12.284Z,10.74
2018-09-30T07:35:41.303Z,10.73
2018-09-30T07:38:10.435Z,9.89
2018-09-30T07:40:39.426Z,9.87
2018-09-30T07:43:08.062Z,9.35
2018-09-30T07:45:36.914Z,9.71
2018-09-30T07:48:06.244Z,8.82
2018-09-30T07:50:34.881Z,9.25
2018-09-30T07:53:03.749Z,8.36
2018-09-30T07:55:32.616Z,8.21
2018-09-30T07:58:04.065Z,8.31
2018-09-30T08:00:33.002Z,9.24
2018-09-30T08:03:01.897Z,10.08
2018-09-30T08:05:30.507Z,8.98
2018-09-30T08:07:59.406Z,9.98
2018-09-30T08:10:27.974Z,10.90
2018-09-30T08:12:57.059Z,12.49
2018-09-30T08:15:25.674Z,13.47
2018-09-30T08:17:55.185Z,13.45
2018-09-30T08:20:24.091Z,15.20
2018-09-30T08:22:52.957Z,18.45
2018-09-30T08:25:22.432Z,17.50
2018-09-30T08:27:51.615Z,17.33
2018-09-30T08:30:20.473Z,17.13
2018-09-30T08:32:49.444Z,17.30
2018-09-30T08:35:18.618Z,17.06
2018-09-30T08:37:52.732Z,18.64
2018-09-30T08:40:27.436Z,18.32
2018-09-30T08:42:56.046Z,13.68
2018-09-30T08:45:25.071Z,16.13
2018-09-30T08:47:56.095Z,14.09
2018-09-30T08:50:25.112Z,12.75
2018-09-30T08:52:54.141Z,12.82
2018-09-30T08:55:22.789Z,14.49
2018-09-30T08:57:51.356Z,17.47
2018-09-30T09:00:20.188Z,19.24
2018-09-30T09:02:49.499Z,20.16
2018-09-30T09:05:18.180Z,20.01
2018-09-30T09:07:47.012Z,20.28
2018-09-30T09:10:16.945Z,21.56
2018-09-30T09:12:45.521Z,22.56
2018-09-30T09:15:14.200Z,21.61
2018-09-30T09:17:43.182Z,20.46
2018-09-30T09:20:11.855Z,20.45
2018-09-30T09:22:41.719Z,19.76
2018-09-30T09:25:10.390Z,20.41
2018-09-30T09:27:38.977Z,21.04
2018-09-30T09:30:07.624Z,22.34
2018-09-30T09:32:38.621Z,23.05
2018-09-30T09:35:09.467Z,23.60
2018-09-30T09:37:39.001Z,23.49
2018-09-30T09:40:10.135Z,23.76
2018-09-30T09:42:39.246Z,22.83
2018-09-30T09:45:09.901Z,21.34
2018-09-30T09:47:38.943Z,22.06
2018-09-30T09:50:09.192Z,22.10
2018-09-30T09:52:38.366Z,22.41
2018-09-30T09:55:06.949Z,22.25
2018-09-30T09:57:35.982Z,21.49
2018-09-30T10:00:05.163Z,20.75
2018-09-30T10:02:33.988Z,21.04
2018-09-30T10:05:02.673Z,22.79
2018-09-30T10:07:31.712Z,22.16
2018-09-30T10:10:01.460Z,20.99
2018-09-30T10:12:30.213Z,21.16
2018-09-30T10:14:59.198Z,22.09
2018-09-30T10:17:29.051Z,21.92
2018-09-30T10:19:58.125Z,23.09
2018-09-30T10:22:27.082Z,22.98
2018-09-30T10:24:55.721Z,22.25
2018-09-30T10:27:24.325Z,22.08
2018-09-30T10:29:53.010Z,21.92
2018-09-30T10:32:22.111Z,20.99
2018-09-30T10:34:51.177Z,22.61
2018-09-30T10:37:20.413Z,22.69
2018-09-30T10:39:49.491Z,22.13
2018-09-30T10:42:18.330Z,22.66
2018-09-30T10:44:48.081Z,22.21
2018-09-30T10:47:17.075Z,21.75
2018-09-30T10:49:50.553Z,20.96
2018-09-30T10:52:20.147Z,20.98
2018-09-30T10:54:50.412Z,21.39
2018-09-30T10:57:19.293Z,20.14
2018-09-30T10:59:48.242Z,20.41
2018-09-30T11:02:16.830Z,21.85
2018-09-30T11:04:47.003Z,23.74
2018-09-30T11:07:16.054Z,22.98
2018-09-30T11:09:44.771Z,23.75
2018-09-30T11:12:13.526Z,23.19
2018-09-30T11:14:42.113Z,22.22
2018-09-30T11:17:10.739Z,21.51
2018-09-30T11:19:39.549Z,19.66
2018-09-30T11:22:09.518Z,19.09
2018-09-30T11:24:38.115Z,19.72
2018-09-30T11:27:07.966Z,19.85
2018-09-30T11:29:36.686Z,20.99
2018-09-30T11:32:05.356Z,22.13
2018-09-30T11:34:33.914Z,22.07
2018-09-30T11:37:02.545Z,20.95
2018-09-30T11:39:31.176Z,22.41
2018-09-30T11:42:00.823Z,23.23
2018-09-30T11:44:29.421Z,24.37
2018-09-30T11:46:59.959Z,25.04
2018-09-30T11:49:28.929Z,23.32
2018-09-30T11:51:58.284Z,22.88
2018-09-30T11:54:28.172Z,22.38
2018-09-30T11:56:57.097Z,22.43
2018-09-30T11:59:25.730Z,23.26
2018-09-30T12:01:54.433Z,23.67
2018-09-30T12:04:23.106Z,24.76
2018-09-30T12:06:52.169Z,25.30
2018-09-30T12:09:20.811Z,26.39
2018-09-30T12:11:49.435Z,27.39
2018-09-30T12:14:18.705Z,27.97
2018-09-30T12:16:47.345Z,28.64
2018-09-30T12:19:15.949Z,28.88
2018-09-30T12:21:44.581Z,30.06
2018-09-30T12:24:13.176Z,31.20
2018-09-30T12:26:41.830Z,30.64
2018-09-30T12:29:10.465Z,30.17
2018-09-30T12:31:39.201Z,30.53
2018-09-30T12:34:07.831Z,31.42
2018-09-30T12:36:36.790Z,30.96
2018-09-30T12:39:07.775Z,31.32
2018-09-30T12:41:36.450Z,30.43
2018-09-30T12:44:05.078Z,30.89
2018-09-30T12:46:34.076Z,32.14
2018-09-30T12:49:03.133Z,30.73
2018-09-30T12:51:31.780Z,32.44
2018-09-30T12:54:00.380Z,31.39
2018-09-30T12:56:29.473Z,29.27
2018-09-30T12:58:58.110Z,30.53
2018-09-30T13:01:26.730Z,31.39
2018-09-30T13:03:55.746Z,31.35
2018-09-30T13:06:24.737Z,31.45
2018-09-30T13:08:53.373Z,32.09
2018-09-30T13:11:21.994Z,31.02
2018-09-30T13:13:51.076Z,29.12
2018-09-30T13:16:19.685Z,30.00
2018-09-30T13:18:48.285Z,29.58
2018-09-30T13:21:16.884Z,30.33
2018-09-30T13:23:45.492Z,29.42
2018-09-30T13:26:14.409Z,29.89
2018-09-30T13:31:10.864Z,29.52
2018-09-30T13:33:40.152Z,30.09
2018-09-30T13:36:08.718Z,30.37
2018-09-30T13:38:38.208Z,30.58
2018-09-30T13:41:07.320Z,29.94
2018-09-30T13:43:35.820Z,29.73
2018-09-30T13:46:04.488Z,28.49
2018-09-30T13:48:34.139Z,29.76
2018-09-30T13:51:06.854Z,30.18
2018-09-30T13:53:36.190Z,30.09
2018-09-30T13:56:05.843Z,29.81
2018-09-30T13:58:34.475Z,29.02
2018-09-30T14:01:04.108Z,30.29
2018-09-30T14:03:33.065Z,29.94
2018-09-30T14:06:06.631Z,29.00
2018-09-30T14:08:35.802Z,30.28
2018-09-30T14:11:04.789Z,29.25
2018-09-30T14:13:33.388Z,28.24
2018-09-30T14:16:02.780Z,27.10
2018-09-30T14:18:35.146Z,26.65
2018-09-30T14:21:04.044Z,26.52
2018-09-30T14:23:33.167Z,27.84
2018-09-30T14:26:02.137Z,28.60
2018-09-30T14:28:31.418Z,27.87
2018-09-30T14:31:01.576Z,27.61
2018-09-30T14:33:30.204Z,26.87
2018-09-30T14:35:59.471Z,27.24
2018-09-30T14:38:29.417Z,26.99
2018-09-30T14:41:01.173Z,27.52
2018-09-30T14:43:30.285Z,29.72
2018-09-30T14:45:59.449Z,30.91
2018-09-30T14:48:28.925Z,31.95
2018-09-30T14:50:57.722Z,32.56
2018-09-30T14:53:26.620Z,32.72
2018-09-30T14:55:55.904Z,33.86
2018-09-30T14:58:25.421Z,35.29
2018-09-30T15:00:54.519Z,35.61
2018-09-30T15:03:23.413Z,36.19
2018-09-30T15:05:52.031Z,38.04
2018-09-30T15:08:27.688Z,37.99
2018-09-30T15:10:56.544Z,37.29
2018-09-30T15:13:25.416Z,36.63
2018-09-30T15:15:54.090Z,34.82
2018-09-30T15:18:22.745Z,33.58
2018-09-30T15:20:55.640Z,33.35
2018-09-30T15:23:24.698Z,32.49
2018-09-30T15:25:58.668Z,31.38
2018-09-30T15:28:34.786Z,31.25
2018-09-30T15:31:03.641Z,30.65
2018-09-30T15:33:32.762Z,30.17
2018-09-30T15:36:01.951Z,29.67
2018-09-30T15:38:31.232Z,28.81
2018-09-30T15:40:59.845Z,27.95
2018-09-30T15:46:04.757Z,30.54
2018-09-30T15:48:33.794Z,29.55
2018-09-30T15:51:02.432Z,29.22
2018-09-30T15:53:31.005Z,31.11
2018-09-30T15:55:59.605Z,32.10
2018-09-30T15:58:28.489Z,33.14
2018-09-30T16:00:57.389Z,32.96
2018-09-30T16:03:25.976Z,32.76
2018-09-30T16:05:54.996Z,32.33
2018-09-30T16:08:23.585Z,33.27
2018-09-30T16:10:52.219Z,34.51
2018-09-30T16:13:20.800Z,34.47
2018-09-30T16:15:49.627Z,34.77
2018-09-30T16:18:18.216Z,35.42
2018-09-30T16:20:47.126Z,35.61
2018-09-30T16:23:15.729Z,35.64
2018-09-30T16:25:44.344Z,36.19
2018-09-30T16:28:12.975Z,37.09
2018-09-30T16:30:41.622Z,37.85
2018-09-30T16:33:10.185Z,37.79
2018-09-30T16:35:39.280Z,38.48
2018-09-30T16:38:08.121Z,39.04
2018-09-30T16:40:36.727Z,40.38
2018-09-30T16:43:05.628Z,40.25
2018-09-30T16:45:34.236Z,42.34
2018-09-30T16:48:02.813Z,42.68
2018-09-30T16:50:31.456Z,43.99
2018-09-30T16:53:00.064Z,45.20
2018-09-30T16:55:28.698Z,45.25
2018-09-30T16:57:57.255Z,46.74
2018-09-30T17:00:26.559Z,46.98
2018-09-30T17:02:55.461Z,47.75
2018-09-30T17:05:24.098Z,48.09
2018-09-30T17:07:53.433Z,49.01
2018-09-30T17:10:23.037Z,48.90
2018-09-30T17:12:51.627Z,49.40
2018-09-30T17:15:20.241Z,49.73
2018-09-30T17:17:53.704Z,51.03
2018-09-30T17:20:23.685Z,50.79
2018-09-30T17:22:52.435Z,51.51
2018-09-30T17:25:21.038Z,52.28
2018-09-30T17:27:58.376Z,53.26
2018-09-30T17:30:26.953Z,54.17
2018-09-30T17:32:55.512Z,54.28
2018-09-30T17:35:27.711Z,55.19
2018-09-30T17:37:56.351Z,55.68
2018-09-30T17:40:24.848Z,56.34
2018-09-30T17:42:53.494Z,57.22
2018-09-30T17:45:25.835Z,57.91
2018-09-30T17:47:55.768Z,58.06
2018-09-30T17:50:24.309Z,58.36
2018-09-30T17:52:52.895Z,58.95
2018-09-30T17:55:21.464Z,59.13
2018-09-30T17:57:50.072Z,59.29
2018-09-30T18:00:18.620Z,59.63
2018-09-30T18:02:47.197Z,59.59
2018-09-30T18:06:40.158Z,59.90
2018-09-30T18:09:10.233Z,61.12
2018-09-30T18:11:39.827Z,61.21
2018-09-30T18:14:08.697Z,61.05
2018-09-30T18:16:39.808Z,61.08
2018-09-30T18:19:08.408Z,61.08
2018-09-30T18:21:37.028Z,61.53
2018-09-30T18:24:06.121Z,61.23
2018-09-30T18:26:34.748Z,61.58
2018-09-30T18:29:03.342Z,62.29
2018-09-30T18:31:31.971Z,62.34
2018-09-30T18:34:00.544Z,61.90
2018-09-30T18:36:29.120Z,62.14
2018-09-30T18:38:57.706Z,62.50
2018-09-30T18:41:26.284Z,62.62
2018-09-30T18:43:54.844Z,62.51
2018-09-30T18:46:23.518Z,62.53
2018-09-30T18:48:52.048Z,62.93
2018-09-30T18:52:45.055Z,62.99
2018-09-30T18:55:13.608Z,63.35
2018-09-30T18:57:42.339Z,63.77
2018-09-30T19:00:10.896Z,63.73
2018-09-30T19:02:39.812Z,63.89
2018-09-30T19:05:08.401Z,63.72
2018-09-30T19:07:36.944Z,63.85
2018-09-30T19:10:05.587Z,63.75
2018-09-30T19:12:34.160Z,63.85
2018-09-30T19:15:02.747Z,63.85
2018-09-30T19:17:31.341Z,64.28
2018-09-30T19:19:59.912Z,64.38
2018-09-30T19:23:52.892Z,64.56
2018-09-30T19:26:21.608Z,64.62
2018-09-30T19:28:50.218Z,64.67
2018-09-30T19:31:18.785Z,64.52
2018-09-30T19:33:47.716Z,65.28
2018-09-30T19:36:16.341Z,64.98
2018-09-30T19:38:44.896Z,64.98
2018-09-30T19:41:13.460Z,64.83
2018-09-30T19:43:42.041Z,65.00
2018-09-30T19:46:10.917Z,64.50
2018-09-30T19:48:39.542Z,64.84
2018-09-30T19:51:08.803Z,64.91
2018-09-30T19:53:43.226Z,64.96
2018-09-30T19:56:11.808Z,65.49
2018-09-30T19:58:40.475Z,65.67
2018-09-30T20:01:09.384Z,65.55
2018-09-30T20:03:37.895Z,65.05
2018-09-30T20:06:06.428Z,65.60
2018-09-30T20:08:35.262Z,65.67
2018-09-30T20:11:03.853Z,65.44
2018-09-30T20:13:38.664Z,65.93
2018-09-30T20:16:07.678Z,65.87
2018-09-30T20:18:36.277Z,66.23
2018-09-30T20:21:04.860Z,66.11
2018-09-30T20:23:33.458Z,67.57
2018-09-30T20:26:02.001Z,67.76
2018-09-30T20:28:30.673Z,68.52
2018-09-30T20:31:00.034Z,68.45
2018-09-30T20:33:28.607Z,68.75
2018-09-30T20:35:57.177Z,68.45
2018-09-30T20:38:25.834Z,68.23
2018-09-30T20:40:54.396Z,68.27
2018-09-30T20:43:22.992Z,68.02
2018-09-30T20:45:51.998Z,68.23
2018-09-30T20:48:20.581Z,67.65
2018-09-30T20:50:49.153Z,67.77
2018-09-30T20:53:25.353Z,67.98
2018-09-30T20:55:56.748Z,68.04
2018-09-30T20:58:25.432Z,68.37
2018-09-30T21:00:54.024Z,68.59
2018-09-30T21:03:22.624Z,68.77
2018-09-30T21:06:43.057Z,69.52
2018-09-30T21:09:13.694Z,69.63
2018-09-30T21:11:42.377Z,69.36
2018-09-30T21:14:13.289Z,70.02
2018-09-30T21:16:41.892Z,70.12
2018-09-30T21:19:10.531Z,70.49
2018-09-30T21:21:39.191Z,70.49
2018-09-30T21:24:07.809Z,70.11
2018-09-30T21:26:45.644Z,70.21
2018-09-30T21:29:15.845Z,70.91
2018-09-30T21:31:44.417Z,70.82
2018-09-30T21:34:13.035Z,70.23
2018-09-30T21:36:41.552Z,70.08
2018-09-30T21:39:11.021Z,70.15
2018-09-30T21:41:39.572Z,70.20
2018-09-30T21:44:08.380Z,70.39
2018-09-30T21:46:37.466Z,70.31
2018-09-30T21:49:06.119Z,70.60
2018-09-30T21:51:34.677Z,70.58
2018-09-30T21:54:03.285Z,71.14
2018-09-30T21:56:31.880Z,70.76
2018-09-30T21:59:00.436Z,70.65
2018-09-30T22:01:29.204Z,71.15
2018-09-30T22:03:57.693Z,71.15
2018-09-30T22:06:26.320Z,71.22
2018-09-30T22:08:54.882Z,71.66
2018-09-30T22:11:23.500Z,70.84
2018-09-30T22:13:52.032Z,70.88
2018-09-30T22:16:20.713Z,70.95
2018-09-30T22:18:49.268Z,70.98
2018-09-30T22:21:17.853Z,70.83
2018-09-30T22:23:51.620Z,71.44
2018-09-30T22:26:20.314Z,70.92
2018-09-30T22:28:48.877Z,70.96
2018-09-30T22:31:17.478Z,70.94
2018-09-30T22:33:46.017Z,71.12
2018-09-30T22:36:14.617Z,71.48
2018-09-30T22:38:43.189Z,72.04
2018-09-30T22:41:11.812Z,72.50
2018-09-30T22:43:40.373Z,72.89
2018-09-30T22:46:09.021Z,72.70
2018-09-30T22:49:24.781Z,72.96
2018-09-30T22:51:53.352Z,72.80
2018-09-30T22:54:21.921Z,73.46
2018-09-30T22:56:51.091Z,73.59
2018-09-30T23:02:25.583Z,73.04
2018-09-30T23:10:48.061Z,73.36
2018-09-30T23:16:17.253Z,73.31
2018-09-30T23:18:45.885Z,73.33
2018-09-30T23:21:14.538Z,73.62
2018-09-30T23:23:43.357Z,73.54
2018-09-30T23:26:12.375Z,73.38
2018-09-30T23:28:40.933Z,73.41
2018-09-30T23:31:09.508Z,73.82
2018-09-30T23:33:51.749Z,74.07
2018-09-30T23:36:22.554Z,73.75
2018-09-30T23:38:51.112Z,72.81
2018-09-30T23:41:19.678Z,72.49
2018-09-30T23:43:48.224Z,74.42
2018-09-30T23:46:22.237Z,76.83
2018-09-30T23:48:50.787Z,78.36
2018-09-30T23:51:19.380Z,79.13
2018-09-30T23:53:48.044Z,78.41
2018-09-30T23:56:16.653Z,77.17
2018-09-30T23:58:45.206Z,77.03
